sensor_id;sensor_type;location;lat;lon;timestamp;P1;durP1;ratioP1;P2;durP2;ratioP2
14125;SDS011;7141;49.484;11.242;2022-07-25T00:01:02;13.43;;;10.90;;
14125;SDS011;7141;49.484;11.242;2022-07-25T00:03:32;11.67;;;10.47;;
14125;SDS011;7141;49.484;11.242;2022-07-25T00:05:58;12.23;;;10.27;;
14125;SDS011;7141;49.484;11.242;2022-07-25T00:08:24;12.30;;;10.67;;
14125;SDS011;7141;49.484;11.242;2022-07-25T00:10:50;12.10;;;10.83;;
14125;SDS011;7141;49.484;11.242;2022-07-25T00:13:16;14.60;;;10.57;;
14125;SDS011;7141;49.484;11.242;2022-07-25T00:15:42;12.10;;;10.90;;
14125;SDS011;7141;49.484;11.242;2022-07-25T00:18:08;11.83;;;9.93;;
14125;SDS011;7141;49.484;11.242;2022-07-25T00:20:34;11.40;;;10.20;;
14125;SDS011;7141;49.484;11.242;2022-07-25T00:23:00;14.27;;;11.10;;
14125;SDS011;7141;49.484;11.242;2022-07-25T00:25:26;11.93;;;10.80;;
14125;SDS011;7141;49.484;11.242;2022-07-25T00:27:52;12.63;;;10.57;;
14125;SDS011;7141;49.484;11.242;2022-07-25T00:30:18;12.83;;;10.10;;
14125;SDS011;7141;49.484;11.242;2022-07-25T00:32:44;11.07;;;10.07;;
14125;SDS011;7141;49.484;11.242;2022-07-25T00:35:10;12.10;;;10.73;;
14125;SDS011;7141;49.484;11.242;2022-07-25T00:37:36;13.50;;;9.93;;
14125;SDS011;7141;49.484;11.242;2022-07-25T00:40:02;11.13;;;10.03;;
14125;SDS011;7141;49.484;11.242;2022-07-25T00:42:28;12.27;;;10.30;;
14125;SDS011;7141;49.484;11.242;2022-07-25T00:44:54;12.57;;;10.03;;
14125;SDS011;7141;49.484;11.242;2022-07-25T00:47:20;13.53;;;9.83;;
14125;SDS011;7141;49.484;11.242;2022-07-25T00:49:47;11.47;;;10.13;;
14125;SDS011;7141;49.484;11.242;2022-07-25T00:52:13;11.67;;;10.37;;
14125;SDS011;7141;49.484;11.242;2022-07-25T00:54:39;11.87;;;10.67;;
14125;SDS011;7141;49.484;11.242;2022-07-25T00:57:05;11.70;;;10.47;;
14125;SDS011;7141;49.484;11.242;2022-07-25T00:59:31;11.67;;;10.57;;
14125;SDS011;7141;49.484;11.242;2022-07-25T01:01:57;12.07;;;10.93;;
14125;SDS011;7141;49.484;11.242;2022-07-25T01:04:23;11.27;;;10.20;;
14125;SDS011;7141;49.484;11.242;2022-07-25T01:06:49;11.73;;;10.43;;
14125;SDS011;7141;49.484;11.242;2022-07-25T01:09:15;12.83;;;11.50;;
14125;SDS011;7141;49.484;11.242;2022-07-25T01:11:41;12.50;;;11.30;;
14125;SDS011;7141;49.484;11.242;2022-07-25T01:14:08;11.27;;;10.27;;
14125;SDS011;7141;49.484;11.242;2022-07-25T01:16:34;12.17;;;10.87;;
14125;SDS011;7141;49.484;11.242;2022-07-25T01:19:00;11.87;;;10.33;;
14125;SDS011;7141;49.484;11.242;2022-07-25T01:21:26;12.40;;;11.13;;
14125;SDS011;7141;49.484;11.242;2022-07-25T01:23:52;11.47;;;10.30;;
14125;SDS011;7141;49.484;11.242;2022-07-25T01:26:18;11.03;;;10.10;;
14125;SDS011;7141;49.484;11.242;2022-07-25T01:28:44;11.97;;;10.77;;
14125;SDS011;7141;49.484;11.242;2022-07-25T01:31:10;11.97;;;10.77;;
14125;SDS011;7141;49.484;11.242;2022-07-25T01:33:39;14.83;;;11.63;;
14125;SDS011;7141;49.484;11.242;2022-07-25T01:36:06;11.80;;;10.33;;
14125;SDS011;7141;49.484;11.242;2022-07-25T01:38:32;11.77;;;10.57;;
14125;SDS011;7141;49.484;11.242;2022-07-25T01:40:58;12.50;;;11.30;;
14125;SDS011;7141;49.484;11.242;2022-07-25T01:43:24;11.60;;;10.40;;
14125;SDS011;7141;49.484;11.242;2022-07-25T01:45:50;12.10;;;10.90;;
14125;SDS011;7141;49.484;11.242;2022-07-25T01:48:16;11.43;;;10.33;;
14125;SDS011;7141;49.484;11.242;2022-07-25T01:50:42;13.03;;;11.73;;
14125;SDS011;7141;49.484;11.242;2022-07-25T01:53:08;12.60;;;11.40;;
14125;SDS011;7141;49.484;11.242;2022-07-25T01:55:34;12.23;;;11.03;;
14125;SDS011;7141;49.484;11.242;2022-07-25T01:58:00;11.47;;;10.37;;
14125;SDS011;7141;49.484;11.242;2022-07-25T02:00:26;12.17;;;11.03;;
14125;SDS011;7141;49.484;11.242;2022-07-25T02:02:52;11.57;;;10.47;;
14125;SDS011;7141;49.484;11.242;2022-07-25T02:05:38;12.63;;;11.20;;
14125;SDS011;7141;49.484;11.242;2022-07-25T02:08:04;12.40;;;11.17;;
14125;SDS011;7141;49.484;11.242;2022-07-25T02:10:30;11.97;;;10.73;;
14125;SDS011;7141;49.484;11.242;2022-07-25T02:12:56;13.80;;;11.33;;
14125;SDS011;7141;49.484;11.242;2022-07-25T02:15:22;11.60;;;10.33;;
14125;SDS011;7141;49.484;11.242;2022-07-25T02:17:48;13.37;;;12.00;;
14125;SDS011;7141;49.484;11.242;2022-07-25T02:20:14;12.50;;;10.50;;
14125;SDS011;7141;49.484;11.242;2022-07-25T02:22:40;11.90;;;10.70;;
14125;SDS011;7141;49.484;11.242;2022-07-25T02:25:06;12.33;;;11.03;;
14125;SDS011;7141;49.484;11.242;2022-07-25T02:27:32;12.00;;;10.33;;
14125;SDS011;7141;49.484;11.242;2022-07-25T02:29:58;12.33;;;10.50;;
14125;SDS011;7141;49.484;11.242;2022-07-25T02:32:24;12.30;;;11.10;;
14125;SDS011;7141;49.484;11.242;2022-07-25T02:34:50;12.10;;;10.90;;
14125;SDS011;7141;49.484;11.242;2022-07-25T02:37:16;12.63;;;11.33;;
14125;SDS011;7141;49.484;11.242;2022-07-25T02:39:42;11.63;;;10.60;;
14125;SDS011;7141;49.484;11.242;2022-07-25T02:42:08;12.53;;;11.23;;
14125;SDS011;7141;49.484;11.242;2022-07-25T02:44:34;11.67;;;10.50;;
14125;SDS011;7141;49.484;11.242;2022-07-25T02:47:00;12.53;;;11.33;;
14125;SDS011;7141;49.484;11.242;2022-07-25T02:49:26;12.83;;;11.63;;
14125;SDS011;7141;49.484;11.242;2022-07-25T02:51:52;12.70;;;11.50;;
14125;SDS011;7141;49.484;11.242;2022-07-25T02:54:18;13.03;;;11.73;;
14125;SDS011;7141;49.484;11.242;2022-07-25T02:56:44;13.70;;;11.00;;
14125;SDS011;7141;49.484;11.242;2022-07-25T02:59:10;12.27;;;11.07;;
14125;SDS011;7141;49.484;11.242;2022-07-25T03:01:36;13.13;;;11.83;;
14125;SDS011;7141;49.484;11.242;2022-07-25T03:04:02;12.90;;;10.83;;
14125;SDS011;7141;49.484;11.242;2022-07-25T03:06:28;15.63;;;11.77;;
14125;SDS011;7141;49.484;11.242;2022-07-25T03:08:54;13.23;;;11.70;;
14125;SDS011;7141;49.484;11.242;2022-07-25T03:11:20;13.60;;;12.20;;
14125;SDS011;7141;49.484;11.242;2022-07-25T03:13:46;12.67;;;11.37;;
14125;SDS011;7141;49.484;11.242;2022-07-25T03:16:12;12.80;;;11.03;;
14125;SDS011;7141;49.484;11.242;2022-07-25T03:18:38;14.47;;;12.03;;
14125;SDS011;7141;49.484;11.242;2022-07-25T03:21:04;14.27;;;11.73;;
14125;SDS011;7141;49.484;11.242;2022-07-25T03:23:30;13.50;;;12.20;;
14125;SDS011;7141;49.484;11.242;2022-07-25T03:25:56;14.10;;;12.70;;
14125;SDS011;7141;49.484;11.242;2022-07-25T03:28:22;12.87;;;11.67;;
14125;SDS011;7141;49.484;11.242;2022-07-25T03:30:49;13.43;;;12.07;;
14125;SDS011;7141;49.484;11.242;2022-07-25T03:33:15;12.63;;;11.43;;
14125;SDS011;7141;49.484;11.242;2022-07-25T03:35:41;13.20;;;11.80;;
14125;SDS011;7141;49.484;11.242;2022-07-25T03:38:07;14.10;;;11.70;;
14125;SDS011;7141;49.484;11.242;2022-07-25T03:40:33;13.20;;;11.80;;
14125;SDS011;7141;49.484;11.242;2022-07-25T03:43:00;13.37;;;12.17;;
14125;SDS011;7141;49.484;11.242;2022-07-25T03:45:26;14.23;;;11.93;;
14125;SDS011;7141;49.484;11.242;2022-07-25T03:47:52;14.10;;;11.73;;
14125;SDS011;7141;49.484;11.242;2022-07-25T03:50:18;14.57;;;11.20;;
14125;SDS011;7141;49.484;11.242;2022-07-25T03:52:44;13.13;;;11.70;;
14125;SDS011;7141;49.484;11.242;2022-07-25T03:55:10;13.70;;;12.30;;
14125;SDS011;7141;49.484;11.242;2022-07-25T03:57:37;12.70;;;11.47;;
14125;SDS011;7141;49.484;11.242;2022-07-25T04:00:04;12.37;;;11.00;;
14125;SDS011;7141;49.484;11.242;2022-07-25T04:02:30;15.17;;;12.37;;
14125;SDS011;7141;49.484;11.242;2022-07-25T04:04:56;13.73;;;12.33;;
14125;SDS011;7141;49.484;11.242;2022-07-25T04:07:22;12.27;;;11.07;;
14125;SDS011;7141;49.484;11.242;2022-07-25T04:09:48;13.33;;;11.97;;
14125;SDS011;7141;49.484;11.242;2022-07-25T04:12:14;12.80;;;11.60;;
14125;SDS011;7141;49.484;11.242;2022-07-25T04:14:40;13.03;;;11.83;;
14125;SDS011;7141;49.484;11.242;2022-07-25T04:17:06;13.40;;;12.00;;
14125;SDS011;7141;49.484;11.242;2022-07-25T04:19:32;13.00;;;11.37;;
14125;SDS011;7141;49.484;11.242;2022-07-25T04:21:58;12.63;;;11.33;;
14125;SDS011;7141;49.484;11.242;2022-07-25T04:24:24;13.27;;;11.90;;
14125;SDS011;7141;49.484;11.242;2022-07-25T04:26:50;13.10;;;11.80;;
14125;SDS011;7141;49.484;11.242;2022-07-25T04:29:16;13.43;;;11.97;;
14125;SDS011;7141;49.484;11.242;2022-07-25T04:31:42;12.87;;;11.53;;
14125;SDS011;7141;49.484;11.242;2022-07-25T04:34:08;12.17;;;10.97;;
14125;SDS011;7141;49.484;11.242;2022-07-25T04:36:34;12.37;;;11.07;;
14125;SDS011;7141;49.484;11.242;2022-07-25T04:39:00;12.60;;;11.07;;
14125;SDS011;7141;49.484;11.242;2022-07-25T04:41:26;16.00;;;11.53;;
14125;SDS011;7141;49.484;11.242;2022-07-25T04:43:52;12.67;;;11.57;;
14125;SDS011;7141;49.484;11.242;2022-07-25T04:46:18;13.63;;;10.70;;
14125;SDS011;7141;49.484;11.242;2022-07-25T04:48:45;12.33;;;11.10;;
14125;SDS011;7141;49.484;11.242;2022-07-25T04:51:11;13.67;;;11.40;;
14125;SDS011;7141;49.484;11.242;2022-07-25T04:53:37;12.73;;;11.07;;
14125;SDS011;7141;49.484;11.242;2022-07-25T04:56:03;15.20;;;11.53;;
14125;SDS011;7141;49.484;11.242;2022-07-25T04:58:30;13.30;;;11.97;;
14125;SDS011;7141;49.484;11.242;2022-07-25T05:00:56;17.53;;;12.30;;
14125;SDS011;7141;49.484;11.242;2022-07-25T05:03:22;13.33;;;12.03;;
14125;SDS011;7141;49.484;11.242;2022-07-25T05:05:48;12.27;;;11.07;;
14125;SDS011;7141;49.484;11.242;2022-07-25T05:08:14;13.20;;;11.87;;
14125;SDS011;7141;49.484;11.242;2022-07-25T05:10:40;15.50;;;11.43;;
14125;SDS011;7141;49.484;11.242;2022-07-25T05:13:07;14.63;;;11.03;;
14125;SDS011;7141;49.484;11.242;2022-07-25T05:15:33;12.80;;;11.37;;
14125;SDS011;7141;49.484;11.242;2022-07-25T05:17:59;11.73;;;10.53;;
14125;SDS011;7141;49.484;11.242;2022-07-25T05:20:25;13.17;;;11.17;;
14125;SDS011;7141;49.484;11.242;2022-07-25T05:22:51;13.30;;;12.00;;
14125;SDS011;7141;49.484;11.242;2022-07-25T05:25:17;12.00;;;10.90;;
14125;SDS011;7141;49.484;11.242;2022-07-25T05:27:43;12.33;;;10.60;;
14125;SDS011;7141;49.484;11.242;2022-07-25T05:30:10;11.33;;;10.23;;
14125;SDS011;7141;49.484;11.242;2022-07-25T05:32:36;12.23;;;10.23;;
14125;SDS011;7141;49.484;11.242;2022-07-25T05:35:03;12.60;;;10.00;;
14125;SDS011;7141;49.484;11.242;2022-07-25T05:37:30;14.10;;;10.10;;
14125;SDS011;7141;49.484;11.242;2022-07-25T05:39:56;9.83;;;8.80;;
14125;SDS011;7141;49.484;11.242;2022-07-25T05:42:22;8.70;;;7.90;;
14125;SDS011;7141;49.484;11.242;2022-07-25T05:44:47;11.30;;;8.00;;
14125;SDS011;7141;49.484;11.242;2022-07-25T05:47:13;8.27;;;7.47;;
14125;SDS011;7141;49.484;11.242;2022-07-25T05:49:40;12.50;;;7.27;;
14125;SDS011;7141;49.484;11.242;2022-07-25T05:52:06;8.70;;;7.80;;
14125;SDS011;7141;49.484;11.242;2022-07-25T05:54:32;7.43;;;6.50;;
14125;SDS011;7141;49.484;11.242;2022-07-25T05:56:58;12.50;;;7.50;;
14125;SDS011;7141;49.484;11.242;2022-07-25T05:59:25;11.27;;;7.30;;
14125;SDS011;7141;49.484;11.242;2022-07-25T06:01:51;8.37;;;7.47;;
14125;SDS011;7141;49.484;11.242;2022-07-25T06:04:17;10.07;;;7.10;;
14125;SDS011;7141;49.484;11.242;2022-07-25T06:06:43;7.97;;;7.20;;
14125;SDS011;7141;49.484;11.242;2022-07-25T06:09:15;7.90;;;7.10;;
14125;SDS011;7141;49.484;11.242;2022-07-25T06:11:41;7.83;;;6.97;;
14125;SDS011;7141;49.484;11.242;2022-07-25T06:14:07;8.87;;;6.57;;
14125;SDS011;7141;49.484;11.242;2022-07-25T06:16:33;7.70;;;6.67;;
14125;SDS011;7141;49.484;11.242;2022-07-25T06:18:59;9.13;;;6.87;;
14125;SDS011;7141;49.484;11.242;2022-07-25T06:21:25;8.83;;;7.17;;
14125;SDS011;7141;49.484;11.242;2022-07-25T06:23:51;8.17;;;7.00;;
14125;SDS011;7141;49.484;11.242;2022-07-25T06:26:17;7.70;;;7.00;;
14125;SDS011;7141;49.484;11.242;2022-07-25T06:28:43;9.73;;;6.90;;
14125;SDS011;7141;49.484;11.242;2022-07-25T06:31:09;7.37;;;6.67;;
14125;SDS011;7141;49.484;11.242;2022-07-25T06:33:35;8.90;;;7.33;;
14125;SDS011;7141;49.484;11.242;2022-07-25T06:36:01;8.90;;;7.33;;
14125;SDS011;7141;49.484;11.242;2022-07-25T06:38:27;9.63;;;6.67;;
14125;SDS011;7141;49.484;11.242;2022-07-25T06:40:53;6.93;;;6.33;;
14125;SDS011;7141;49.484;11.242;2022-07-25T06:43:19;8.60;;;6.50;;
14125;SDS011;7141;49.484;11.242;2022-07-25T06:45:45;8.83;;;7.23;;
14125;SDS011;7141;49.484;11.242;2022-07-25T06:48:12;8.33;;;7.17;;
14125;SDS011;7141;49.484;11.242;2022-07-25T06:50:39;7.13;;;6.43;;
14125;SDS011;7141;49.484;11.242;2022-07-25T06:53:05;8.90;;;6.50;;
14125;SDS011;7141;49.484;11.242;2022-07-25T06:55:31;11.80;;;7.03;;
14125;SDS011;7141;49.484;11.242;2022-07-25T06:57:57;7.30;;;6.60;;
14125;SDS011;7141;49.484;11.242;2022-07-25T07:00:23;8.30;;;6.70;;
14125;SDS011;7141;49.484;11.242;2022-07-25T07:05:15;7.47;;;6.50;;
14125;SDS011;7141;49.484;11.242;2022-07-25T07:07:41;6.60;;;6.00;;
14125;SDS011;7141;49.484;11.242;2022-07-25T07:10:07;6.67;;;5.93;;
14125;SDS011;7141;49.484;11.242;2022-07-25T07:12:33;9.07;;;6.47;;
14125;SDS011;7141;49.484;11.242;2022-07-25T07:14:59;7.43;;;6.10;;
14125;SDS011;7141;49.484;11.242;2022-07-25T07:17:25;7.43;;;6.73;;
14125;SDS011;7141;49.484;11.242;2022-07-25T07:19:51;7.93;;;6.73;;
14125;SDS011;7141;49.484;11.242;2022-07-25T07:22:17;6.43;;;5.83;;
14125;SDS011;7141;49.484;11.242;2022-07-25T07:24:43;8.10;;;5.93;;
14125;SDS011;7141;49.484;11.242;2022-07-25T07:27:09;7.93;;;6.37;;
14125;SDS011;7141;49.484;11.242;2022-07-25T07:29:35;6.87;;;6.27;;
14125;SDS011;7141;49.484;11.242;2022-07-25T07:32:01;6.60;;;5.80;;
14125;SDS011;7141;49.484;11.242;2022-07-25T07:34:27;7.20;;;6.20;;
14125;SDS011;7141;49.484;11.242;2022-07-25T07:36:53;6.30;;;5.60;;
14125;SDS011;7141;49.484;11.242;2022-07-25T07:39:19;8.50;;;5.87;;
14125;SDS011;7141;49.484;11.242;2022-07-25T07:41:45;6.40;;;5.85;;
14125;SDS011;7141;49.484;11.242;2022-07-25T07:44:11;7.77;;;5.77;;
14125;SDS011;7141;49.484;11.242;2022-07-25T07:46:38;7.17;;;5.80;;
14125;SDS011;7141;49.484;11.242;2022-07-25T07:49:04;8.23;;;6.10;;
14125;SDS011;7141;49.484;11.242;2022-07-25T07:51:30;8.63;;;6.32;;
14125;SDS011;7141;49.484;11.242;2022-07-25T07:53:56;7.57;;;6.15;;
14125;SDS011;7141;49.484;11.242;2022-07-25T07:56:41;9.82;;;7.82;;
14125;SDS011;7141;49.484;11.242;2022-07-25T07:59:07;8.65;;;7.00;;
14125;SDS011;7141;49.484;11.242;2022-07-25T08:01:33;9.88;;;7.25;;
14125;SDS011;7141;49.484;11.242;2022-07-25T08:03:59;8.13;;;6.55;;
14125;SDS011;7141;49.484;11.242;2022-07-25T08:06:25;6.47;;;5.88;;
14125;SDS011;7141;49.484;11.242;2022-07-25T08:08:52;6.47;;;5.70;;
14125;SDS011;7141;49.484;11.242;2022-07-25T08:11:18;6.70;;;6.05;;
14125;SDS011;7141;49.484;11.242;2022-07-25T08:13:44;6.28;;;5.68;;
14125;SDS011;7141;49.484;11.242;2022-07-25T08:16:11;6.03;;;5.43;;
14125;SDS011;7141;49.484;11.242;2022-07-25T08:18:37;7.20;;;5.95;;
14125;SDS011;7141;49.484;11.242;2022-07-25T08:21:03;6.53;;;5.93;;
14125;SDS011;7141;49.484;11.242;2022-07-25T08:23:30;6.75;;;5.85;;
14125;SDS011;7141;49.484;11.242;2022-07-25T08:25:59;6.22;;;5.68;;
14125;SDS011;7141;49.484;11.242;2022-07-25T08:28:26;7.70;;;5.82;;
14125;SDS011;7141;49.484;11.242;2022-07-25T08:30:52;6.00;;;5.45;;
14125;SDS011;7141;49.484;11.242;2022-07-25T08:33:18;6.63;;;6.03;;
14125;SDS011;7141;49.484;11.242;2022-07-25T08:35:45;6.22;;;5.60;;
14125;SDS011;7141;49.484;11.242;2022-07-25T08:38:11;6.30;;;5.80;;
14125;SDS011;7141;49.484;11.242;2022-07-25T08:40:37;6.30;;;5.75;;
14125;SDS011;7141;49.484;11.242;2022-07-25T08:43:04;6.40;;;5.75;;
14125;SDS011;7141;49.484;11.242;2022-07-25T08:45:30;6.40;;;5.80;;
14125;SDS011;7141;49.484;11.242;2022-07-25T08:47:57;6.30;;;5.70;;
14125;SDS011;7141;49.484;11.242;2022-07-25T08:50:24;5.53;;;5.03;;
14125;SDS011;7141;49.484;11.242;2022-07-25T08:52:51;6.40;;;5.75;;
14125;SDS011;7141;49.484;11.242;2022-07-25T08:55:18;8.00;;;6.57;;
14125;SDS011;7141;49.484;11.242;2022-07-25T08:57:49;6.85;;;6.15;;
14125;SDS011;7141;49.484;11.242;2022-07-25T09:00:19;8.20;;;5.82;;
14125;SDS011;7141;49.484;11.242;2022-07-25T09:05:17;6.18;;;5.65;;
14125;SDS011;7141;49.484;11.242;2022-07-25T09:07:44;6.50;;;6.00;;
14125;SDS011;7141;49.484;11.242;2022-07-25T09:10:17;6.55;;;5.95;;
14125;SDS011;7141;49.484;11.242;2022-07-25T09:12:59;8.18;;;5.60;;
14125;SDS011;7141;49.484;11.242;2022-07-25T09:15:29;6.63;;;5.95;;
14125;SDS011;7141;49.484;11.242;2022-07-25T09:17:56;6.45;;;5.78;;
14125;SDS011;7141;49.484;11.242;2022-07-25T09:20:23;8.93;;;6.35;;
14125;SDS011;7141;49.484;11.242;2022-07-25T09:22:49;6.70;;;6.00;;
14125;SDS011;7141;49.484;11.242;2022-07-25T09:25:26;6.75;;;6.15;;
14125;SDS011;7141;49.484;11.242;2022-07-25T09:28:07;8.70;;;6.18;;
14125;SDS011;7141;49.484;11.242;2022-07-25T09:30:34;6.28;;;5.63;;
14125;SDS011;7141;49.484;11.242;2022-07-25T09:33:00;6.05;;;5.55;;
14125;SDS011;7141;49.484;11.242;2022-07-25T09:35:30;6.25;;;5.65;;
14125;SDS011;7141;49.484;11.242;2022-07-25T09:38:05;7.28;;;6.03;;
14125;SDS011;7141;49.484;11.242;2022-07-25T09:40:31;8.07;;;6.35;;
14125;SDS011;7141;49.484;11.242;2022-07-25T09:42:57;6.97;;;6.35;;
14125;SDS011;7141;49.484;11.242;2022-07-25T09:45:23;7.60;;;6.25;;
14125;SDS011;7141;49.484;11.242;2022-07-25T09:47:51;6.65;;;6.05;;
14125;SDS011;7141;49.484;11.242;2022-07-25T09:50:18;7.45;;;6.68;;
14125;SDS011;7141;49.484;11.242;2022-07-25T09:52:44;6.38;;;5.78;;
14125;SDS011;7141;49.484;11.242;2022-07-25T09:55:10;6.72;;;6.03;;
14125;SDS011;7141;49.484;11.242;2022-07-25T09:57:38;6.63;;;6.03;;
14125;SDS011;7141;49.484;11.242;2022-07-25T10:00:04;7.63;;;6.40;;
14125;SDS011;7141;49.484;11.242;2022-07-25T10:05:13;6.72;;;6.10;;
14125;SDS011;7141;49.484;11.242;2022-07-25T10:07:46;6.97;;;6.28;;
14125;SDS011;7141;49.484;11.242;2022-07-25T10:10:46;6.90;;;6.30;;
14125;SDS011;7141;49.484;11.242;2022-07-25T10:13:12;8.43;;;6.40;;
14125;SDS011;7141;49.484;11.242;2022-07-25T10:15:40;7.43;;;6.60;;
14125;SDS011;7141;49.484;11.242;2022-07-25T10:18:06;7.75;;;6.03;;
14125;SDS011;7141;49.484;11.242;2022-07-25T10:20:33;6.97;;;6.47;;
14125;SDS011;7141;49.484;11.242;2022-07-25T10:22:59;6.97;;;6.38;;
14125;SDS011;7141;49.484;11.242;2022-07-25T10:25:25;7.93;;;6.43;;
14125;SDS011;7141;49.484;11.242;2022-07-25T10:27:53;7.25;;;6.55;;
14125;SDS011;7141;49.484;11.242;2022-07-25T10:30:37;6.70;;;6.10;;
14125;SDS011;7141;49.484;11.242;2022-07-25T10:33:10;9.00;;;6.43;;
14125;SDS011;7141;49.484;11.242;2022-07-25T10:35:37;6.95;;;6.35;;
14125;SDS011;7141;49.484;11.242;2022-07-25T10:38:03;6.45;;;5.85;;
14125;SDS011;7141;49.484;11.242;2022-07-25T10:40:37;7.72;;;6.78;;
14125;SDS011;7141;49.484;11.242;2022-07-25T10:43:13;7.03;;;6.32;;
14125;SDS011;7141;49.484;11.242;2022-07-25T10:45:40;7.25;;;6.63;;
14125;SDS011;7141;49.484;11.242;2022-07-25T10:48:07;7.18;;;6.55;;
14125;SDS011;7141;49.484;11.242;2022-07-25T10:50:33;7.32;;;6.72;;
14125;SDS011;7141;49.484;11.242;2022-07-25T10:52:59;7.18;;;6.15;;
14125;SDS011;7141;49.484;11.242;2022-07-25T10:55:27;6.60;;;6.00;;
14125;SDS011;7141;49.484;11.242;2022-07-25T10:58:00;6.90;;;6.30;;
14125;SDS011;7141;49.484;11.242;2022-07-25T11:00:27;6.72;;;6.10;;
14125;SDS011;7141;49.484;11.242;2022-07-25T11:02:55;7.40;;;6.68;;
14125;SDS011;7141;49.484;11.242;2022-07-25T11:05:21;6.88;;;6.28;;
14125;SDS011;7141;49.484;11.242;2022-07-25T11:07:51;6.93;;;6.28;;
14125;SDS011;7141;49.484;11.242;2022-07-25T11:10:23;6.75;;;6.15;;
14125;SDS011;7141;49.484;11.242;2022-07-25T11:12:50;8.65;;;6.32;;
14125;SDS011;7141;49.484;11.242;2022-07-25T11:15:16;6.70;;;6.10;;
14125;SDS011;7141;49.484;11.242;2022-07-25T11:18:01;7.75;;;6.95;;
14125;SDS011;7141;49.484;11.242;2022-07-25T11:20:27;7.10;;;6.15;;
14125;SDS011;7141;49.484;11.242;2022-07-25T11:22:54;7.03;;;6.32;;
14125;SDS011;7141;49.484;11.242;2022-07-25T11:25:21;9.30;;;6.38;;
14125;SDS011;7141;49.484;11.242;2022-07-25T11:28:00;6.85;;;6.25;;
14125;SDS011;7141;49.484;11.242;2022-07-25T11:30:27;8.43;;;5.97;;
14125;SDS011;7141;49.484;11.242;2022-07-25T11:32:57;9.02;;;6.43;;
14125;SDS011;7141;49.484;11.242;2022-07-25T11:35:26;7.25;;;6.10;;
14125;SDS011;7141;49.484;11.242;2022-07-25T11:37:53;8.10;;;6.68;;
14125;SDS011;7141;49.484;11.242;2022-07-25T11:40:19;7.30;;;6.40;;
14125;SDS011;7141;49.484;11.242;2022-07-25T11:45:16;6.97;;;6.35;;
14125;SDS011;7141;49.484;11.242;2022-07-25T11:47:43;6.18;;;5.65;;
14125;SDS011;7141;49.484;11.242;2022-07-25T11:50:09;7.40;;;5.95;;
14125;SDS011;7141;49.484;11.242;2022-07-25T11:52:39;6.20;;;5.70;;
14125;SDS011;7141;49.484;11.242;2022-07-25T11:55:10;7.53;;;5.05;;
14125;SDS011;7141;49.484;11.242;2022-07-25T11:57:37;5.75;;;5.25;;
14125;SDS011;7141;49.484;11.242;2022-07-25T12:00:07;6.72;;;6.03;;
14125;SDS011;7141;49.484;11.242;2022-07-25T12:02:35;6.00;;;5.55;;
14125;SDS011;7141;49.484;11.242;2022-07-25T12:05:05;6.18;;;5.65;;
14125;SDS011;7141;49.484;11.242;2022-07-25T12:07:39;6.93;;;5.45;;
14125;SDS011;7141;49.484;11.242;2022-07-25T12:10:06;6.68;;;6.05;;
14125;SDS011;7141;49.484;11.242;2022-07-25T12:12:42;7.47;;;6.20;;
14125;SDS011;7141;49.484;11.242;2022-07-25T12:15:09;7.97;;;5.90;;
14125;SDS011;7141;49.484;11.242;2022-07-25T12:17:35;7.13;;;5.93;;
14125;SDS011;7141;49.484;11.242;2022-07-25T12:20:02;6.78;;;6.20;;
14125;SDS011;7141;49.484;11.242;2022-07-25T12:22:28;8.98;;;5.88;;
14125;SDS011;7141;49.484;11.242;2022-07-25T12:24:54;6.60;;;6.10;;
14125;SDS011;7141;49.484;11.242;2022-07-25T12:27:20;6.28;;;5.78;;
14125;SDS011;7141;49.484;11.242;2022-07-25T12:29:46;6.18;;;5.68;;
14125;SDS011;7141;49.484;11.242;2022-07-25T12:32:12;6.05;;;5.32;;
14125;SDS011;7141;49.484;11.242;2022-07-25T12:34:38;7.78;;;5.57;;
14125;SDS011;7141;49.484;11.242;2022-07-25T12:37:04;5.80;;;5.30;;
14125;SDS011;7141;49.484;11.242;2022-07-25T12:39:30;5.60;;;5.10;;
14125;SDS011;7141;49.484;11.242;2022-07-25T12:41:57;6.25;;;5.65;;
14125;SDS011;7141;49.484;11.242;2022-07-25T12:44:23;6.18;;;5.57;;
14125;SDS011;7141;49.484;11.242;2022-07-25T12:46:49;6.28;;;5.68;;
14125;SDS011;7141;49.484;11.242;2022-07-25T12:49:15;6.13;;;5.63;;
14125;SDS011;7141;49.484;11.242;2022-07-25T12:51:41;6.75;;;6.15;;
14125;SDS011;7141;49.484;11.242;2022-07-25T12:54:07;7.70;;;7.00;;
14125;SDS011;7141;49.484;11.242;2022-07-25T12:56:33;7.63;;;6.03;;
14125;SDS011;7141;49.484;11.242;2022-07-25T12:59:00;6.55;;;5.75;;
14125;SDS011;7141;49.484;11.242;2022-07-25T13:01:26;8.18;;;6.30;;
14125;SDS011;7141;49.484;11.242;2022-07-25T13:03:52;9.25;;;6.85;;
14125;SDS011;7141;49.484;11.242;2022-07-25T13:06:18;6.88;;;6.28;;
14125;SDS011;7141;49.484;11.242;2022-07-25T13:08:45;7.45;;;6.60;;
14125;SDS011;7141;49.484;11.242;2022-07-25T13:11:11;6.75;;;6.15;;
14125;SDS011;7141;49.484;11.242;2022-07-25T13:13:37;7.68;;;6.80;;
14125;SDS011;7141;49.484;11.242;2022-07-25T13:16:03;7.00;;;6.30;;
14125;SDS011;7141;49.484;11.242;2022-07-25T13:18:30;6.90;;;6.20;;
14125;SDS011;7141;49.484;11.242;2022-07-25T13:20:56;10.32;;;6.65;;
14125;SDS011;7141;49.484;11.242;2022-07-25T13:23:24;7.35;;;6.50;;
14125;SDS011;7141;49.484;11.242;2022-07-25T13:25:50;7.22;;;6.55;;
14125;SDS011;7141;49.484;11.242;2022-07-25T13:28:16;7.50;;;6.80;;
14125;SDS011;7141;49.484;11.242;2022-07-25T13:30:42;8.25;;;6.85;;
14125;SDS011;7141;49.484;11.242;2022-07-25T13:33:08;9.18;;;6.30;;
14125;SDS011;7141;49.484;11.242;2022-07-25T13:35:34;7.90;;;5.15;;
14125;SDS011;7141;49.484;11.242;2022-07-25T13:38:02;6.57;;;4.90;;
14125;SDS011;7141;49.484;11.242;2022-07-25T13:40:28;6.40;;;5.55;;
14125;SDS011;7141;49.484;11.242;2022-07-25T13:42:54;6.15;;;5.55;;
14125;SDS011;7141;49.484;11.242;2022-07-25T13:45:20;5.90;;;5.40;;
14125;SDS011;7141;49.484;11.242;2022-07-25T13:47:46;5.45;;;4.95;;
14125;SDS011;7141;49.484;11.242;2022-07-25T13:50:12;5.53;;;5.03;;
14125;SDS011;7141;49.484;11.242;2022-07-25T13:52:38;4.32;;;3.85;;
14125;SDS011;7141;49.484;11.242;2022-07-25T13:55:04;4.60;;;4.20;;
14125;SDS011;7141;49.484;11.242;2022-07-25T13:57:31;4.15;;;3.85;;
14125;SDS011;7141;49.484;11.242;2022-07-25T13:59:57;4.20;;;3.90;;
14125;SDS011;7141;49.484;11.242;2022-07-25T14:02:23;5.68;;;4.20;;
14125;SDS011;7141;49.484;11.242;2022-07-25T14:04:49;4.55;;;4.10;;
14125;SDS011;7141;49.484;11.242;2022-07-25T14:07:15;4.47;;;3.22;;
14125;SDS011;7141;49.484;11.242;2022-07-25T14:09:41;3.28;;;2.65;;
14125;SDS011;7141;49.484;11.242;2022-07-25T14:12:07;4.22;;;2.80;;
14125;SDS011;7141;49.484;11.242;2022-07-25T14:14:33;2.60;;;2.40;;
14125;SDS011;7141;49.484;11.242;2022-07-25T14:16:59;4.18;;;2.85;;
14125;SDS011;7141;49.484;11.242;2022-07-25T14:19:25;6.60;;;3.50;;
14125;SDS011;7141;49.484;11.242;2022-07-25T14:21:51;3.85;;;2.80;;
14125;SDS011;7141;49.484;11.242;2022-07-25T14:24:17;3.30;;;3.03;;
14125;SDS011;7141;49.484;11.242;2022-07-25T14:26:43;5.32;;;3.35;;
14125;SDS011;7141;49.484;11.242;2022-07-25T14:29:09;3.85;;;3.53;;
14125;SDS011;7141;49.484;11.242;2022-07-25T14:31:37;4.25;;;3.22;;
14125;SDS011;7141;49.484;11.242;2022-07-25T14:34:03;3.70;;;3.40;;
14125;SDS011;7141;49.484;11.242;2022-07-25T14:36:29;4.10;;;3.50;;
14125;SDS011;7141;49.484;11.242;2022-07-25T14:38:55;4.05;;;3.63;;
14125;SDS011;7141;49.484;11.242;2022-07-25T14:41:21;4.18;;;3.78;;
14125;SDS011;7141;49.484;11.242;2022-07-25T14:43:47;3.85;;;3.55;;
14125;SDS011;7141;49.484;11.242;2022-07-25T14:46:13;3.55;;;3.25;;